sensor_id;sensor_type;location;lat;lon;timestamp;pressure;altitude;pressure_sealevel;temperature;humidity
61674;BME280;47573;43.832;5.974;2022-07-29T00:02:25;95143.53;;;27.53;45.73
61674;BME280;47573;43.832;5.974;2022-07-29T00:07:26;95158.84;;;27.89;45.17
61674;BME280;47573;43.832;5.974;2022-07-29T00:12:28;95153.34;;;27.84;45.18
61674;BME280;47573;43.832;5.974;2022-07-29T00:17:28;95132.03;;;27.36;45.93
61674;BME280;47573;43.832;5.974;2022-07-29T00:22:29;95137.47;;;27.66;45.22
61674;BME280;47573;43.832;5.974;2022-07-29T00:27:31;95125.44;;;27.52;45.58
61674;BME280;47573;43.832;5.974;2022-07-29T00:32:31;95121.00;;;27.76;45.32
61674;BME280;47573;43.832;5.974;2022-07-29T00:37:32;95120.50;;;27.49;45.61
61674;BME280;47573;43.832;5.974;2022-07-29T00:42:42;95128.19;;;27.47;45.48
61674;BME280;47573;43.832;5.974;2022-07-29T00:47:43;95119.38;;;27.20;45.91
61674;BME280;47573;43.832;5.974;2022-07-29T00:52:44;95117.19;;;27.12;45.48
61674;BME280;47573;43.832;5.974;2022-07-29T00:57:46;95104.31;;;27.32;45.79
61674;BME280;47573;43.832;5.974;2022-07-29T01:02:47;95100.09;;;29.08;42.80
61674;BME280;47573;43.832;5.974;2022-07-29T01:07:50;95091.56;;;29.43;42.19
61674;BME280;47573;43.832;5.974;2022-07-29T01:12:54;95080.34;;;29.63;41.99
61674;BME280;47573;43.832;5.974;2022-07-29T01:18:01;95066.50;;;29.73;41.54
61674;BME280;47573;43.832;5.974;2022-07-29T01:29:07;95071.16;;;30.01;41.58
61674;BME280;47573;43.832;5.974;2022-07-29T01:34:18;95070.56;;;30.04;41.67
61674;BME280;47573;43.832;5.974;2022-07-29T01:39:25;95065.88;;;30.05;41.82
61674;BME280;47573;43.832;5.974;2022-07-29T01:44:31;95077.59;;;30.15;41.54
61674;BME280;47573;43.832;5.974;2022-07-29T01:49:35;95063.75;;;30.21;41.86
61674;BME280;47573;43.832;5.974;2022-07-29T01:54:39;95050.53;;;30.23;41.97
61674;BME280;47573;43.832;5.974;2022-07-29T01:59:43;95054.25;;;30.32;41.55
61674;BME280;47573;43.832;5.974;2022-07-29T02:04:46;95049.91;;;30.26;41.70
61674;BME280;47573;43.832;5.974;2022-07-29T02:09:50;95057.59;;;30.29;41.78
61674;BME280;47573;43.832;5.974;2022-07-29T02:14:53;95062.25;;;30.33;41.60
61674;BME280;47573;43.832;5.974;2022-07-29T02:19:57;95067.97;;;30.37;41.64
61674;BME280;47573;43.832;5.974;2022-07-29T02:24:59;95063.00;;;30.39;41.72
61674;BME280;47573;43.832;5.974;2022-07-29T02:30:04;95053.06;;;30.38;41.76
61674;BME280;47573;43.832;5.974;2022-07-29T02:35:07;95053.06;;;30.38;41.93
61674;BME280;47573;43.832;5.974;2022-07-29T02:40:10;95055.31;;;30.36;41.82
61674;BME280;47573;43.832;5.974;2022-07-29T02:45:12;95061.50;;;30.46;41.68
61674;BME280;47573;43.832;5.974;2022-07-29T02:50:15;95066.22;;;30.46;41.90
61674;BME280;47573;43.832;5.974;2022-07-29T02:55:18;95068.38;;;30.49;41.87
61674;BME280;47573;43.832;5.974;2022-07-29T03:00:21;95048.25;;;30.48;41.86
61674;BME280;47573;43.832;5.974;2022-07-29T03:05:23;95051.25;;;30.52;41.84
61674;BME280;47573;43.832;5.974;2022-07-29T03:10:25;95061.22;;;30.48;41.99
61674;BME280;47573;43.832;5.974;2022-07-29T03:15:28;95061.28;;;30.43;41.93
61674;BME280;47573;43.832;5.974;2022-07-29T03:20:29;95063.97;;;30.48;41.99
61674;BME280;47573;43.832;5.974;2022-07-29T03:25:30;95059.78;;;30.50;42.09
61674;BME280;47573;43.832;5.974;2022-07-29T03:30:32;95054.00;;;30.52;41.96
61674;BME280;47573;43.832;5.974;2022-07-29T03:35:33;95057.88;;;30.51;41.98
61674;BME280;47573;43.832;5.974;2022-07-29T03:40:37;95067.25;;;30.50;41.96
61674;BME280;47573;43.832;5.974;2022-07-29T03:45:43;95072.84;;;30.45;42.04
61674;BME280;47573;43.832;5.974;2022-07-29T03:50:45;95072.53;;;30.46;42.17
61674;BME280;47573;43.832;5.974;2022-07-29T03:55:49;95071.94;;;30.49;41.76
61674;BME280;47573;43.832;5.974;2022-07-29T04:00:52;95083.53;;;30.46;41.98
61674;BME280;47573;43.832;5.974;2022-07-29T04:05:58;95079.91;;;30.51;41.83
61674;BME280;47573;43.832;5.974;2022-07-29T04:10:59;95086.03;;;30.48;41.78
61674;BME280;47573;43.832;5.974;2022-07-29T04:16:01;95070.53;;;30.52;41.92
61674;BME280;47573;43.832;5.974;2022-07-29T04:21:01;95060.56;;;30.56;41.78
61674;BME280;47573;43.832;5.974;2022-07-29T04:26:06;95056.09;;;30.60;41.79
61674;BME280;47573;43.832;5.974;2022-07-29T04:31:08;95051.78;;;30.54;41.86
61674;BME280;47573;43.832;5.974;2022-07-29T04:36:08;95059.13;;;30.58;41.63
61674;BME280;47573;43.832;5.974;2022-07-29T04:41:09;95057.28;;;30.54;41.85
61674;BME280;47573;43.832;5.974;2022-07-29T04:46:11;95055.25;;;30.59;41.49
61674;BME280;47573;43.832;5.974;2022-07-29T04:51:11;95056.53;;;30.67;41.43
61674;BME280;47573;43.832;5.974;2022-07-29T04:56:12;95060.41;;;30.66;41.43
61674;BME280;47573;43.832;5.974;2022-07-29T05:01:14;95076.94;;;30.66;41.40
61674;BME280;47573;43.832;5.974;2022-07-29T05:06:14;95084.69;;;30.64;41.59
61674;BME280;47573;43.832;5.974;2022-07-29T05:11:15;95098.66;;;29.49;40.86
61674;BME280;47573;43.832;5.974;2022-07-29T05:16:16;95088.81;;;28.12;42.35
61674;BME280;47573;43.832;5.974;2022-07-29T05:21:17;95085.81;;;28.08;42.27
61674;BME280;47573;43.832;5.974;2022-07-29T05:26:17;95068.88;;;27.86;42.59
61674;BME280;47573;43.832;5.974;2022-07-29T05:31:19;95071.13;;;27.59;43.54
61674;BME280;47573;43.832;5.974;2022-07-29T05:36:20;95082.13;;;27.39;44.05
61674;BME280;47573;43.832;5.974;2022-07-29T05:41:20;95084.28;;;27.62;42.92
61674;BME280;47573;43.832;5.974;2022-07-29T05:46:22;95099.63;;;27.73;43.12
61674;BME280;47573;43.832;5.974;2022-07-29T05:51:23;95114.41;;;27.87;43.22
61674;BME280;47573;43.832;5.974;2022-07-29T05:56:23;95128.63;;;28.14;43.11
61674;BME280;47573;43.832;5.974;2022-07-29T06:01:25;95132.41;;;28.28;43.24
61674;BME280;47573;43.832;5.974;2022-07-29T06:06:25;95145.03;;;28.24;43.47
61674;BME280;47573;43.832;5.974;2022-07-29T06:11:26;95155.59;;;27.77;44.43
61674;BME280;47573;43.832;5.974;2022-07-29T06:16:28;95155.06;;;27.55;45.50
61674;BME280;47573;43.832;5.974;2022-07-29T06:21:28;95161.03;;;27.97;44.55
61674;BME280;47573;43.832;5.974;2022-07-29T06:26:29;95146.06;;;28.38;43.56
61674;BME280;47573;43.832;5.974;2022-07-29T06:31:31;95159.88;;;28.23;43.55
61674;BME280;47573;43.832;5.974;2022-07-29T06:36:34;95165.72;;;27.16;46.59
61674;BME280;47573;43.832;5.974;2022-07-29T06:41:35;95167.63;;;27.05;46.71
61674;BME280;47573;43.832;5.974;2022-07-29T06:46:36;95170.88;;;26.82;47.16
61674;BME280;47573;43.832;5.974;2022-07-29T06:51:37;95167.63;;;27.05;46.76
61674;BME280;47573;43.832;5.974;2022-07-29T06:56:38;95173.69;;;27.33;46.10
61674;BME280;47573;43.832;5.974;2022-07-29T07:01:41;95186.28;;;27.89;45.02
61674;BME280;47573;43.832;5.974;2022-07-29T07:06:42;95176.97;;;27.70;45.58
61674;BME280;47573;43.832;5.974;2022-07-29T07:11:42;95177.00;;;27.60;46.44
61674;BME280;47573;43.832;5.974;2022-07-29T07:16:44;95181.09;;;27.88;46.47
61674;BME280;47573;43.832;5.974;2022-07-29T07:21:46;95168.00;;;28.58;44.87
61674;BME280;47573;43.832;5.974;2022-07-29T07:26:46;95171.13;;;28.91;44.49
61674;BME280;47573;43.832;5.974;2022-07-29T07:31:48;95185.84;;;29.15;43.94
61674;BME280;47573;43.832;5.974;2022-07-29T07:36:49;95193.50;;;29.23;43.77
61674;BME280;47573;43.832;5.974;2022-07-29T07:41:49;95202.75;;;29.37;43.45
61674;BME280;47573;43.832;5.974;2022-07-29T07:46:51;95196.09;;;29.43;43.26
61674;BME280;47573;43.832;5.974;2022-07-29T07:51:52;95220.56;;;29.45;43.37
61674;BME280;47573;43.832;5.974;2022-07-29T07:56:52;95225.91;;;29.65;43.09
61674;BME280;47573;43.832;5.974;2022-07-29T08:01:54;95240.00;;;29.58;43.24
61674;BME280;47573;43.832;5.974;2022-07-29T08:06:55;95254.13;;;29.85;42.81
61674;BME280;47573;43.832;5.974;2022-07-29T08:11:56;95253.53;;;29.88;42.57
61674;BME280;47573;43.832;5.974;2022-07-29T08:16:59;95264.09;;;29.71;43.23
61674;BME280;47573;43.832;5.974;2022-07-29T08:22:00;95269.06;;;29.74;43.05
61674;BME280;47573;43.832;5.974;2022-07-29T08:27:00;95266.28;;;29.79;42.96
61674;BME280;47573;43.832;5.974;2022-07-29T08:32:02;95269.59;;;29.76;43.02
61674;BME280;47573;43.832;5.974;2022-07-29T08:37:03;95266.69;;;29.96;42.68
61674;BME280;47573;43.832;5.974;2022-07-29T08:42:05;95273.03;;;29.92;42.85
61674;BME280;47573;43.832;5.974;2022-07-29T08:47:08;95272.50;;;29.90;42.99
61674;BME280;47573;43.832;5.974;2022-07-29T08:52:10;95256.72;;;30.00;42.94
61674;BME280;47573;43.832;5.974;2022-07-29T08:57:12;95255.66;;;29.96;42.97
61674;BME280;47573;43.832;5.974;2022-07-29T09:02:20;95266.69;;;29.96;43.06
61674;BME280;47573;43.832;5.974;2022-07-29T09:07:21;95271.13;;;29.92;43.10
61674;BME280;47573;43.832;5.974;2022-07-29T09:12:21;95279.38;;;29.92;42.99
61674;BME280;47573;43.832;5.974;2022-07-29T09:17:41;95257.84;;;29.99;42.82
61674;BME280;47573;43.832;5.974;2022-07-29T09:22:41;95261.66;;;30.03;42.83
61674;BME280;47573;43.832;5.974;2022-07-29T09:27:49;95262.22;;;30.00;42.71
61674;BME280;47573;43.832;5.974;2022-07-29T09:32:56;95261.69;;;29.98;43.03
61674;BME280;47573;43.832;5.974;2022-07-29T09:37:57;95260.06;;;29.97;42.99
61674;BME280;47573;43.832;5.974;2022-07-29T09:43:10;95254.50;;;30.02;43.05
61674;BME280;47573;43.832;5.974;2022-07-29T09:48:17;95258.38;;;30.01;42.85
61674;BME280;47573;43.832;5.974;2022-07-29T09:53:30;95256.63;;;30.10;42.75
61674;BME280;47573;43.832;5.974;2022-07-29T09:58:32;95246.63;;;30.19;42.56
61674;BME280;47573;43.832;5.974;2022-07-29T10:03:50;95232.88;;;30.19;42.51
61674;BME280;47573;43.832;5.974;2022-07-29T10:08:51;95229.53;;;30.23;42.35
61674;BME280;47573;43.832;5.974;2022-07-29T10:13:51;95221.84;;;30.19;42.65
61674;BME280;47573;43.832;5.974;2022-07-29T10:18:53;95216.84;;;30.27;42.54
61674;BME280;47573;43.832;5.974;2022-07-29T10:23:55;95221.66;;;30.40;42.02
61674;BME280;47573;43.832;5.974;2022-07-29T10:28:57;95220.38;;;30.32;42.25
61674;BME280;47573;43.832;5.974;2022-07-29T10:34:04;95206.31;;;30.34;42.49
61674;BME280;47573;43.832;5.974;2022-07-29T10:39:17;95214.47;;;30.44;42.15
61674;BME280;47573;43.832;5.974;2022-07-29T10:44:21;95214.41;;;30.49;42.20
61674;BME280;47573;43.832;5.974;2022-07-29T10:49:25;95214.53;;;30.39;42.30
61674;BME280;47573;43.832;5.974;2022-07-29T10:54:42;95201.56;;;30.39;42.70
61674;BME280;47573;43.832;5.974;2022-07-29T10:59:44;95217.69;;;30.51;42.05
61674;BME280;47573;43.832;5.974;2022-07-29T11:05:02;95233.56;;;30.59;42.08
61674;BME280;47573;43.832;5.974;2022-07-29T11:10:23;95229.19;;;30.58;42.21
61674;BME280;47573;43.832;5.974;2022-07-29T11:15:23;95244.66;;;30.54;42.21
61674;BME280;47573;43.832;5.974;2022-07-29T11:20:36;95253.88;;;30.68;42.11
61674;BME280;47573;43.832;5.974;2022-07-29T11:25:37;95246.78;;;30.62;41.95
61674;BME280;47573;43.832;5.974;2022-07-29T11:30:51;95246.78;;;30.62;42.18
61674;BME280;47573;43.832;5.974;2022-07-29T11:41:24;95249.97;;;30.69;41.91
61674;BME280;47573;43.832;5.974;2022-07-29T11:46:45;95255.44;;;30.74;41.98
61674;BME280;47573;43.832;5.974;2022-07-29T11:51:50;95268.66;;;30.77;41.68
61674;BME280;47573;43.832;5.974;2022-07-29T11:56:52;95283.84;;;30.74;42.04
61674;BME280;47573;43.832;5.974;2022-07-29T12:01:53;95274.09;;;30.82;42.11
61674;BME280;47573;43.832;5.974;2022-07-29T12:06:54;95275.75;;;30.83;41.93
61674;BME280;47573;43.832;5.974;2022-07-29T12:11:58;95288.75;;;30.77;41.83
61674;BME280;47573;43.832;5.974;2022-07-29T12:17:00;95293.47;;;30.77;41.75
61674;BME280;47573;43.832;5.974;2022-07-29T12:22:00;95296.75;;;30.79;41.95
61674;BME280;47573;43.832;5.974;2022-07-29T12:27:02;95274.09;;;30.82;41.75
61674;BME280;47573;43.832;5.974;2022-07-29T12:32:03;95267.00;;;30.76;41.97
61674;BME280;47573;43.832;5.974;2022-07-29T12:37:04;95273.47;;;30.90;41.96
61674;BME280;47573;43.832;5.974;2022-07-29T12:42:12;95261.91;;;30.88;41.97
61674;BME280;47573;43.832;5.974;2022-07-29T12:47:12;95234.59;;;30.91;41.67
61674;BME280;47573;43.832;5.974;2022-07-29T12:52:27;95222.50;;;30.87;42.00
61674;BME280;47573;43.832;5.974;2022-07-29T12:57:29;95220.41;;;30.98;41.35
61674;BME280;47573;43.832;5.974;2022-07-29T13:02:30;95217.66;;;30.98;41.84
61674;BME280;47573;43.832;5.974;2022-07-29T13:07:32;95207.25;;;30.95;41.57
61674;BME280;47573;43.832;5.974;2022-07-29T13:12:35;95208.28;;;30.99;41.83
61674;BME280;47573;43.832;5.974;2022-07-29T13:17:40;95212.66;;;31.00;41.83
61674;BME280;47573;43.832;5.974;2022-07-29T13:22:41;95212.16;;;30.98;41.97
61674;BME280;47573;43.832;5.974;2022-07-29T13:27:43;95192.31;;;30.96;42.04
61674;BME280;47573;43.832;5.974;2022-07-29T13:32:46;95189.41;;;31.06;41.76
61674;BME280;47573;43.832;5.974;2022-07-29T13:37:47;95179.53;;;31.05;42.03
61674;BME280;47573;43.832;5.974;2022-07-29T13:42:49;95176.69;;;31.10;41.92
61674;BME280;47573;43.832;5.974;2022-07-29T13:47:49;95166.84;;;31.04;42.30
61674;BME280;47573;43.832;5.974;2022-07-29T13:52:50;95158.72;;;31.13;42.21
61674;BME280;47573;43.832;5.974;2022-07-29T13:57:52;95155.88;;;31.18;41.96
61674;BME280;47573;43.832;5.974;2022-07-29T14:02:52;95156.41;;;31.01;42.76
61674;BME280;47573;43.832;5.974;2022-07-29T14:07:53;95159.84;;;30.93;42.96
61674;BME280;47573;43.832;5.974;2022-07-29T14:12:55;95176.25;;;31.03;42.87
61674;BME280;47573;43.832;5.974;2022-07-29T14:17:55;95162.97;;;31.05;42.54
61674;BME280;47573;43.832;5.974;2022-07-29T14:22:56;95155.16;;;31.12;42.30
61674;BME280;47573;43.832;5.974;2022-07-29T14:27:58;95145.59;;;31.05;42.53
61674;BME280;47573;43.832;5.974;2022-07-29T14:32:58;95144.78;;;31.04;42.60
61674;BME280;47573;43.832;5.974;2022-07-29T14:37:59;95143.16;;;31.03;42.38
61674;BME280;47573;43.832;5.974;2022-07-29T14:43:00;95137.41;;;31.18;42.30
61674;BME280;47573;43.832;5.974;2022-07-29T14:48:01;95137.47;;;31.13;42.67
61674;BME280;47573;43.832;5.974;2022-07-29T14:53:02;95123.75;;;31.45;41.54
61674;BME280;47573;43.832;5.974;2022-07-29T14:58:04;95121.84;;;31.59;39.64
61674;BME280;47573;43.832;5.974;2022-07-29T15:03:04;95117.81;;;31.52;39.93
61674;BME280;47573;43.832;5.974;2022-07-29T15:08:05;95127.25;;;31.64;39.84
61674;BME280;47573;43.832;5.974;2022-07-29T15:13:07;95126.47;;;31.64;39.09
61674;BME280;47573;43.832;5.974;2022-07-29T15:18:07;95122.25;;;31.66;39.56
61674;BME280;47573;43.832;5.974;2022-07-29T15:23:08;95117.69;;;31.76;39.01
61674;BME280;47573;43.832;5.974;2022-07-29T15:28:10;95130.97;;;31.73;38.92
61674;BME280;47573;43.832;5.974;2022-07-29T15:33:10;95124.25;;;31.80;38.82
61674;BME280;47573;43.832;5.974;2022-07-29T15:38:11;95129.84;;;31.93;38.05
61674;BME280;47573;43.832;5.974;2022-07-29T15:43:13;95127.91;;;32.21;37.39
61674;BME280;47573;43.832;5.974;2022-07-29T15:48:13;95117.19;;;32.06;37.60
61674;BME280;47573;43.832;5.974;2022-07-29T15:53:14;95113.28;;;32.07;37.78
61674;BME280;47573;43.832;5.974;2022-07-29T15:58:15;95107.53;;;32.17;37.84
61674;BME280;47573;43.832;5.974;2022-07-29T16:03:16;95091.59;;;32.27;37.21
61674;BME280;47573;43.832;5.974;2022-07-29T16:08:16;95094.66;;;32.26;37.75
61674;BME280;47573;43.832;5.974;2022-07-29T16:13:19;95082.19;;;32.28;37.43
61674;BME280;47573;43.832;5.974;2022-07-29T16:18:19;95088.09;;;32.35;37.44
61674;BME280;47573;43.832;5.974;2022-07-29T16:23:20;95086.88;;;32.28;37.93
61674;BME280;47573;43.832;5.974;2022-07-29T16:28:22;95084.03;;;32.46;36.78
61674;BME280;47573;43.832;5.974;2022-07-29T16:33:22;95098.94;;;32.32;37.69
61674;BME280;47573;43.832;5.974;2022-07-29T16:38:23;95092.19;;;32.11;38.25
61674;BME280;47573;43.832;5.974;2022-07-29T16:43:25;95090.56;;;32.10;38.67
61674;BME280;47573;43.832;5.974;2022-07-29T16:48:25;95090.66;;;32.05;38.75
61674;BME280;47573;43.832;5.974;2022-07-29T16:53:26;95090.66;;;32.05;38.53
61674;BME280;47573;43.832;5.974;2022-07-29T16:58:27;95085.66;;;32.07;38.44
61674;BME280;47573;43.832;5.974;2022-07-29T17:03:28;95072.97;;;32.06;38.59
61674;BME280;47573;43.832;5.974;2022-07-29T17:08:28;95078.91;;;32.13;38.15
61674;BME280;47573;43.832;5.974;2022-07-29T17:13:30;95086.88;;;32.01;38.83
61674;BME280;47573;43.832;5.974;2022-07-29T17:18:31;95090.56;;;32.10;38.16
61674;BME280;47573;43.832;5.974;2022-07-29T17:23:31;95095.16;;;32.01;38.61
61674;BME280;47573;43.832;5.974;2022-07-29T17:28:33;95088.94;;;31.95;38.45
61674;BME280;47573;43.832;5.974;2022-07-29T17:33:34;95088.31;;;31.98;38.60
61674;BME280;47573;43.832;5.974;2022-07-29T17:38:34;95102.22;;;32.07;38.81
61674;BME280;47573;43.832;5.974;2022-07-29T17:43:36;95109.91;;;32.10;37.81
61674;BME280;47573;43.832;5.974;2022-07-29T17:48:37;95105.72;;;32.26;36.69
61674;BME280;47573;43.832;5.974;2022-07-29T17:53:38;95105.81;;;32.07;37.69
61674;BME280;47573;43.832;5.974;2022-07-29T17:58:40;95114.09;;;32.07;37.19
61674;BME280;47573;43.832;5.974;2022-07-29T18:03:40;95120.44;;;32.08;37.39
61674;BME280;47573;43.832;5.974;2022-07-29T18:08:41;95122.28;;;31.99;37.38
61674;BME280;47573;43.832;5.974;2022-07-29T18:13:43;95119.00;;;31.97;37.30
61674;BME280;47573;43.832;5.974;2022-07-29T18:18:44;95130.72;;;31.89;37.52
61674;BME280;47573;43.832;5.974;2022-07-29T18:23:44;95130.63;;;31.94;37.54
61674;BME280;47573;43.832;5.974;2022-07-29T18:28:46;95134.59;;;31.88;37.72
61674;BME280;47573;43.832;5.974;2022-07-29T18:33:47;95136.84;;;31.86;37.64
61674;BME280;47573;43.832;5.974;2022-07-29T18:38:47;95133.56;;;31.84;37.89
61674;BME280;47573;43.832;5.974;2022-07-29T18:43:49;95139.97;;;31.65;38.43
61674;BME280;47573;43.832;5.974;2022-07-29T18:48:50;95139.97;;;31.65;38.86
61674;BME280;47573;43.832;5.974;2022-07-29T18:53:50;95135.91;;;31.44;38.79
61674;BME280;47573;43.832;5.974;2022-07-29T18:58:52;95142.38;;;31.35;39.20
61674;BME280;47573;43.832;5.974;2022-07-29T19:03:52;95144.31;;;31.34;39.97
61674;BME280;47573;43.832;5.974;2022-07-29T19:08:53;95138.97;;;31.24;40.20
61674;BME280;47573;43.832;5.974;2022-07-29T19:13:55;95137.16;;;31.33;40.46
61674;BME280;47573;43.832;5.974;2022-07-29T19:18:56;95131.06;;;30.99;41.00
61674;BME280;47573;43.832;5.974;2022-07-29T19:23:56;95136.38;;;30.96;41.45
61674;BME280;47573;43.832;5.974;2022-07-29T19:28:58;95136.13;;;31.11;41.66
61674;BME280;47573;43.832;5.974;2022-07-29T19:33:58;95132.94;;;30.85;42.05
61674;BME280;47573;43.832;5.974;2022-07-29T19:38:59;95131.25;;;30.84;41.94
61674;BME280;47573;43.832;5.974;2022-07-29T19:44:01;95136.09;;;30.73;42.42
61674;BME280;47573;43.832;5.974;2022-07-29T19:49:02;95145.59;;;30.44;42.64
61674;BME280;47573;43.832;5.974;2022-07-29T19:54:03;95146.59;;;30.71;42.08
61674;BME280;47573;43.832;5.974;2022-07-29T19:59:04;95160.88;;;30.55;42.52
61674;BME280;47573;43.832;5.974;2022-07-29T20:04:05;95163.69;;;30.50;42.25
61674;BME280;47573;43.832;5.974;2022-07-29T20:09:05;95178.09;;;30.42;42.72
61674;BME280;47573;43.832;5.974;2022-07-29T20:14:07;95169.22;;;30.21;42.72
61674;BME280;47573;43.832;5.974;2022-07-29T20:19:08;95175.66;;;30.11;43.01
61674;BME280;47573;43.832;5.974;2022-07-29T20:24:08;95182.56;;;30.09;42.80
61674;BME280;47573;43.832;5.974;2022-07-29T20:29:10;95188.34;;;30.12;42.99
61674;BME280;47573;43.832;5.974;2022-07-29T20:34:11;95197.13;;;30.14;42.94
61674;BME280;47573;43.832;5.974;2022-07-29T20:39:11;95190.34;;;29.73;43.47
61674;BME280;47573;43.832;5.974;2022-07-29T20:44:13;95197.72;;;29.44;44.01
61674;BME280;47573;43.832;5.974;2022-07-29T20:49:14;95198.72;;;29.58;43.79
61674;BME280;47573;43.832;5.974;2022-07-29T20:54:14;95196.66;;;29.40;44.20
61674;BME280;47573;43.832;5.974;2022-07-29T20:59:16;95190.63;;;29.38;43.88
61674;BME280;47573;43.832;5.974;2022-07-29T21:04:17;95195.59;;;29.36;44.14
61674;BME280;47573;43.832;5.974;2022-07-29T21:09:17;95195.78;;;29.45;43.87
61674;BME280;47573;43.832;5.974;2022-07-29T21:14:19;95197.19;;;29.42;43.82
61674;BME280;47573;43.832;5.974;2022-07-29T21:19:20;95202.75;;;29.32;43.93
61674;BME280;47573;43.832;5.974;2022-07-29T21:24:20;95200.16;;;29.17;44.22
61674;BME280;47573;43.832;5.974;2022-07-29T21:29:22;95203.97;;;29.11;44.08
61674;BME280;47573;43.832;5.974;2022-07-29T21:34:23;95195.72;;;29.16;44.11
61674;BME280;47573;43.832;5.974;2022-07-29T21:39:23;95199.97;;;28.88;44.50
61674;BME280;47573;43.832;5.974;2022-07-29T21:44:25;95208.94;;;28.60;45.31
61674;BME280;47573;43.832;5.974;2022-07-29T21:49:25;95209.22;;;28.58;45.03
61674;BME280;47573;43.832;5.974;2022-07-29T21:54:26;95226.25;;;28.50;45.04
61674;BME280;47573;43.832;5.974;2022-07-29T21:59:28;95222.31;;;28.72;44.99
61674;BME280;47573;43.832;5.974;2022-07-29T22:04:28;95224.00;;;28.68;45.11
61674;BME280;47573;43.832;5.974;2022-07-29T22:09:29;95242.25;;;28.23;45.62
61674;BME280;47573;43.832;5.974;2022-07-29T22:14:31;95244.47;;;28.21;45.68
61674;BME280;47573;43.832;5.974;2022-07-29T22:19:32;95248.59;;;27.83;46.49
61674;BME280;47573;43.832;5.974;2022-07-29T22:24:32;95237.63;;;27.73;46.76
61674;BME280;47573;43.832;5.974;2022-07-29T22:29:34;95250.50;;;27.88;46.39
61674;BME280;47573;43.832;5.974;2022-07-29T22:34:35;95247.75;;;27.83;46.59
61674;BME280;47573;43.832;5.974;2022-07-29T22:39:35;95240.91;;;27.65;47.09
61674;BME280;47573;43.832;5.974;2022-07-29T22:44:37;95243.34;;;28.22;45.93
61674;BME280;47573;43.832;5.974;2022-07-29T22:49:37;95236.78;;;27.83;46.64
61674;BME280;47573;43.832;5.974;2022-07-29T22:54:38;95242.81;;;27.80;46.62
61674;BME280;47573;43.832;5.974;2022-07-29T22:59:40;95234.81;;;27.28;47.44
61674;BME280;47573;43.832;5.974;2022-07-29T23:04:40;95239.53;;;27.38;47.37
61674;BME280;47573;43.832;5.974;2022-07-29T23:09:41;95242.97;;;27.03;48.05
61674;BME280;47573;43.832;5.974;2022-07-29T23:14:43;95250.06;;;26.84;48.58
61674;BME280;47573;43.832;5.974;2022-07-29T23:19:43;95255.84;;;26.97;48.59
61674;BME280;47573;43.832;5.974;2022-07-29T23:24:43;95252.59;;;27.16;48.13
61674;BME280;47573;43.832;5.974;2022-07-29T23:29:45;95248.78;;;27.17;47.83
61674;BME280;47573;43.832;5.974;2022-07-29T23:34:46;95244.03;;;26.87;48.49
61674;BME280;47573;43.832;5.974;2022-07-29T23:39:46;95236.63;;;26.82;48.41
61674;BME280;47573;43.832;5.974;2022-07-29T23:44:48;95228.69;;;26.81;48.42
61674;BME280;47573;43.832;5.974;2022-07-29T23:49:49;95230.97;;;26.42;49.19
61674;BME280;47573;43.832;5.974;2022-07-29T23:54:49;95222.47;;;26.44;49.20
61674;BME280;47573;43.832;5.974;2022-07-29T23:59:51;95213.75;;;26.52;49.15
